This is the latest recevied weather packets stored in our database for station/object K7SKM. If no packets are shown the sender has not sent any weather packets the latest 10 day(s).
| Time | Temp. | Humidity | Pressure | Rain* | Wind** | Luminosity | Snow |
|---|---|---|---|---|---|---|---|
| 1776999132 | 12.78° C | 62% | 1024.6 hPa | 0 mm | - | 5 W/m² | - |
| 1776998829 | 13.33° C | 61% | 1024.6 hPa | 0 mm | - | 7 W/m² | - |
| 1776998526 | 13.33° C | 59% | 1024.3 hPa | 0 mm | - | 11 W/m² | - |
| 1776998222 | 13.89° C | 58% | 1024.5 hPa | 0 mm | - | 16 W/m² | - |
| 1776997917 | 13.89° C | 59% | 1024.7 hPa | 0 mm | - | 19 W/m² | - |
| 1776997613 | 13.89° C | 58% | 1024.6 hPa | 0 mm | - | 21 W/m² | - |
| 1776997309 | 14.44° C | 56% | 1024.6 hPa | 0 mm | - | 24 W/m² | - |
| 1776997005 | 14.44° C | 56% | 1024.6 hPa | 0 mm | - | 26 W/m² | - |
| 1776996701 | 14.44° C | 55% | 1024.6 hPa | 0 mm | - | 29 W/m² | - |
| 1776996398 | 14.44° C | 55% | 1024.7 hPa | 0 mm | - | 31 W/m² | - |
| 1776996095 | 14.44° C | 54% | 1024.8 hPa | 0 mm | - | 33 W/m² | - |
| 1776995792 | 14.44° C | 55% | 1024.7 hPa | 0 mm | - | 32 W/m² | - |
| 1776995492 | 14.44° C | 55% | 1024.7 hPa | 0 mm | - | 33 W/m² | - |
| 1776995187 | 14.44° C | 55% | 1024.9 hPa | 0 mm | - | 34 W/m² | - |
| 1776994883 | 14.44° C | 54% | 1024.9 hPa | 0 mm | - | 37 W/m² | - |
| 1776994578 | 15° C | 54% | 1024.9 hPa | 0 mm | - | 40 W/m² | - |
| 1776994275 | 15° C | 53% | 1024.8 hPa | 0 mm | - | 42 W/m² | - |
| 1776993971 | 15° C | 52% | 1024.9 hPa | 0 mm | - | 47 W/m² | - |
| 1776993669 | 15.56° C | 53% | 1025 hPa | 0 mm | - | 54 W/m² | - |
| 1776993366 | 17.22° C | 48% | 1025 hPa | 0 mm | - | 138 W/m² | - |
| 1776993063 | 16.67° C | 49% | 1024.9 hPa | 0 mm | - | 258 W/m² | - |
| 1776992760 | 16.67° C | 50% | 1025 hPa | 0 mm | - | 275 W/m² | - |
| 1776992456 | 16.11° C | 53% | 1025 hPa | 0 mm | - | 274 W/m² | - |
| 1776992154 | 15° C | 56% | 1025.1 hPa | 0 mm | - | 279 W/m² | - |
| 1776991850 | 15° C | 55% | 1025.1 hPa | 0 mm | - | 67 W/m² | - |
* Rain latest hour (hover to see other rain measurements)
** Current wind speed in m/s (hover to see current wind gust speed)